KGAG/GAG METAR and TAF weather

Enter ICAO airport designator
Station Type Date Time Source
KGAG METAR 2019/08/22 04:53 UTC NOAA

KGAG 220453Z AUTO 26015KT 10SM SCT100 BKN120 25/15 A3000 RMK AO2 SLP125 T02500150 TSNO $


Station Type Date Time Source
KGAG Decoded METAR 2019/08/22 04:53 UTC NOAA

Station name not available
Aug 22, 2019 - 12:53 AM EDT / 2019.08.22 0453 UTC
Wind: from the W (260 degrees) at 17 MPH (15 KT):0
Visibility: 10 mile(s):0
Sky conditions: mostly cloudy
Temperature: 77.0 F (25.0 C)
Dew Point: 59.0 F (15.0 C)
Relative Humidity: 53%
Pressure (altimeter): 30 in. Hg (1015 hPa)
ob: KGAG 220453Z AUTO 26015KT 10SM SCT100 BKN120 25/15 A3000 RMK AO2 SLP125 T02500150 TSNO
cycle: 5

Station Type Date Time Source
KGAG TAF 2018/03/21 06:22 UTC NOAA

TAF KGAG 210520Z 2106/2206 VRB04KT P6SM SCT250
FM211300 16008KT P6SM SCT250
FM211800 18012G22KT P6SM BKN250

Example: see airport list